createdAt,value
2022-11-17T00:00:03.656Z,5.90
2022-11-17T00:02:31.320Z,8.85
2022-11-17T00:04:58.938Z,6.50
2022-11-17T00:07:26.623Z,7.18
2022-11-17T00:09:54.492Z,6.63
2022-11-17T00:12:41.191Z,4.03
2022-11-17T00:15:09.281Z,7.00
2022-11-17T00:17:36.869Z,6.13
2022-11-17T00:20:22.636Z,4.55
2022-11-17T00:22:50.273Z,4.82
2022-11-17T00:25:17.949Z,7.10
2022-11-17T00:27:47.008Z,7.60
2022-11-17T00:30:35.485Z,5.68
2022-11-17T00:33:21.304Z,5.40
2022-11-17T00:35:53.237Z,5.40
2022-11-17T00:38:21.158Z,8.77
2022-11-17T00:40:48.731Z,6.10
2022-11-17T00:43:17.692Z,5.00
2022-11-17T00:45:45.340Z,6.30
2022-11-17T00:48:13.839Z,6.03
2022-11-17T00:50:41.431Z,5.18
2022-11-17T00:53:09.225Z,6.45
2022-11-17T00:55:36.878Z,5.82
2022-11-17T00:58:04.695Z,5.90
2022-11-17T01:00:33.674Z,4.30
2022-11-17T01:03:01.281Z,4.88
2022-11-17T01:05:32.851Z,4.38
2022-11-17T01:08:00.837Z,4.88
2022-11-17T01:10:28.412Z,4.78
2022-11-17T01:12:56.081Z,4.90
2022-11-17T01:15:23.732Z,8.50
2022-11-17T01:17:52.697Z,3.35
2022-11-17T01:20:20.444Z,5.70
2022-11-17T01:22:48.188Z,5.50
2022-11-17T01:25:15.882Z,3.33
2022-11-17T01:27:43.555Z,4.38
2022-11-17T01:30:12.647Z,5.40
2022-11-17T01:32:40.261Z,4.53
2022-11-17T01:35:10.003Z,3.72
2022-11-17T01:37:37.668Z,1.90
2022-11-17T01:40:06.215Z,4.13
2022-11-17T01:42:33.835Z,3.53
2022-11-17T01:45:04.084Z,2.20
2022-11-17T01:47:40.716Z,1.70
2022-11-17T01:50:19.499Z,2.95
2022-11-17T01:52:47.886Z,2.45
2022-11-17T01:55:15.896Z,2.40
2022-11-17T01:57:47.717Z,3.85
2022-11-17T02:00:16.557Z,5.73
2022-11-17T02:02:46.332Z,5.10
2022-11-17T02:05:31.204Z,2.85
2022-11-17T02:08:02.885Z,3.38
2022-11-17T02:10:32.547Z,2.13
2022-11-17T02:13:01.702Z,2.40
2022-11-17T02:15:30.808Z,2.42
2022-11-17T02:17:59.602Z,1.90
2022-11-17T02:20:42.170Z,1.40
2022-11-17T02:23:47.865Z,2.63
2022-11-17T02:26:52.779Z,2.80
2022-11-17T02:29:25.799Z,3.42
2022-11-17T02:32:00.568Z,2.13
2022-11-17T02:34:39.494Z,3.13
2022-11-17T02:37:13.531Z,3.60
2022-11-17T02:39:48.243Z,2.55
2022-11-17T02:42:43.827Z,2.25
2022-11-17T02:45:16.460Z,4.07
2022-11-17T02:50:14.887Z,2.13
2022-11-17T02:52:42.597Z,3.60
2022-11-17T02:55:11.933Z,2.72
2022-11-17T02:57:41.018Z,2.15
2022-11-17T03:00:12.163Z,4.50
2022-11-17T03:02:53.674Z,2.80
2022-11-17T03:05:28.329Z,2.65
2022-11-17T03:08:07.900Z,4.20
2022-11-17T03:10:45.802Z,4.72
2022-11-17T03:13:22.841Z,3.08
2022-11-17T03:15:55.788Z,4.38
2022-11-17T03:18:30.203Z,2.58
2022-11-17T03:21:06.613Z,3.10
2022-11-17T03:23:42.144Z,4.57
2022-11-17T03:26:13.014Z,3.65
2022-11-17T03:28:43.061Z,4.80
2022-11-17T03:31:12.642Z,3.38
2022-11-17T03:33:42.669Z,4.45
2022-11-17T03:36:13.861Z,4.40
2022-11-17T03:38:45.767Z,4.32
2022-11-17T03:41:16.556Z,3.58
2022-11-17T03:43:48.447Z,5.22
2022-11-17T03:46:20.655Z,6.27
2022-11-17T03:48:54.552Z,4.07
2022-11-17T03:51:24.600Z,4.97
2022-11-17T03:53:53.351Z,3.97
2022-11-17T03:56:32.309Z,3.80
2022-11-17T03:59:03.580Z,3.25
2022-11-17T04:01:33.819Z,5.03
2022-11-17T04:04:02.849Z,4.28
2022-11-17T04:06:30.452Z,2.90
2022-11-17T04:08:58.081Z,4.90
2022-11-17T04:11:43.223Z,3.80
2022-11-17T04:14:28.490Z,2.15
2022-11-17T04:16:56.082Z,0.73
2022-11-17T04:19:25.031Z,2.25
2022-11-17T04:21:52.620Z,0.60
2022-11-17T04:24:20.315Z,0.80
2022-11-17T04:27:05.758Z,1.88
2022-11-17T04:29:34.076Z,1.02
2022-11-17T04:32:02.091Z,2.35
2022-11-17T04:34:31.068Z,0.55
2022-11-17T04:37:00.016Z,1.08
2022-11-17T04:39:30.371Z,0.95
2022-11-17T04:41:57.345Z,1.45
2022-11-17T04:44:26.705Z,1.35
2022-11-17T04:46:55.139Z,1.27
2022-11-17T04:49:24.062Z,2.38
2022-11-17T04:51:54.389Z,0.95
2022-11-17T04:54:24.469Z,0.57
2022-11-17T04:56:52.524Z,0.88
2022-11-17T04:59:20.262Z,1.38
2022-11-17T05:01:48.666Z,0.60
2022-11-17T05:04:39.214Z,1.40
2022-11-17T05:07:09.231Z,1.42
2022-11-17T05:09:36.987Z,1.27
2022-11-17T05:12:22.201Z,1.38
2022-11-17T05:14:50.510Z,1.27
2022-11-17T05:17:18.026Z,0.93
2022-11-17T05:19:47.037Z,2.25
2022-11-17T05:22:34.740Z,0.80
2022-11-17T05:25:02.844Z,0.70
2022-11-17T05:27:30.436Z,3.42
2022-11-17T05:29:58.108Z,1.20
2022-11-17T05:32:26.087Z,0.93
2022-11-17T05:34:53.701Z,2.83
2022-11-17T05:37:22.725Z,0.60
2022-11-17T05:39:50.425Z,0.60
2022-11-17T05:42:18.185Z,0.85
2022-11-17T05:44:46.382Z,0.90
2022-11-17T05:47:14.027Z,2.30
2022-11-17T05:49:41.799Z,3.45
2022-11-17T05:52:09.502Z,1.10
2022-11-17T05:54:38.458Z,1.10
2022-11-17T05:57:09.336Z,0.50
2022-11-17T05:59:42.782Z,1.70
2022-11-17T06:02:15.193Z,3.55
2022-11-17T06:04:42.865Z,1.40
2022-11-17T06:07:11.191Z,2.60
2022-11-17T06:09:42.853Z,3.33
2022-11-17T06:12:11.925Z,3.08
2022-11-17T06:14:39.982Z,2.97
2022-11-17T06:17:16.293Z,7.15
2022-11-17T06:19:51.439Z,3.60
2022-11-17T06:22:19.324Z,3.22
2022-11-17T06:24:48.556Z,6.53
2022-11-17T06:27:18.224Z,3.15
2022-11-17T06:29:46.907Z,3.17
2022-11-17T06:32:15.532Z,5.45
2022-11-17T06:34:43.965Z,12.57
2022-11-17T06:37:12.401Z,6.13
2022-11-17T06:39:40.058Z,4.93
2022-11-17T06:42:09.070Z,7.05
2022-11-17T06:44:36.673Z,6.85
2022-11-17T06:47:04.324Z,7.03
2022-11-17T06:49:31.918Z,2.55
2022-11-17T06:51:59.543Z,3.90
2022-11-17T06:54:27.191Z,5.30
2022-11-17T06:56:55.372Z,14.55
2022-11-17T06:59:24.443Z,3.47
2022-11-17T07:01:52.154Z,9.75
2022-11-17T07:04:19.824Z,8.57
2022-11-17T07:06:47.481Z,4.68
2022-11-17T07:09:15.132Z,12.35
2022-11-17T07:11:42.841Z,8.75
2022-11-17T07:14:10.764Z,6.90
2022-11-17T07:16:42.605Z,7.15
2022-11-17T07:19:10.688Z,4.73
2022-11-17T07:21:38.707Z,7.53
2022-11-17T07:24:06.829Z,15.23
2022-11-17T07:26:34.540Z,10.50
2022-11-17T07:29:02.213Z,10.88
2022-11-17T07:31:29.822Z,5.00
2022-11-17T07:33:58.960Z,3.65
2022-11-17T07:36:26.701Z,11.82
2022-11-17T07:38:54.615Z,9.43
2022-11-17T07:41:22.337Z,6.07
2022-11-17T07:43:50.002Z,9.52
2022-11-17T07:46:17.642Z,4.72
2022-11-17T07:48:45.893Z,7.63
2022-11-17T07:51:16.003Z,7.07
2022-11-17T07:53:43.802Z,10.35
2022-11-17T07:56:12.355Z,3.70
2022-11-17T07:58:40.724Z,2.17
2022-11-17T08:01:11.783Z,8.35
2022-11-17T08:03:39.642Z,7.30
2022-11-17T08:06:09.375Z,6.90
2022-11-17T08:08:39.020Z,2.72
2022-11-17T08:11:08.274Z,5.38
2022-11-17T08:13:36.562Z,1.00
2022-11-17T08:16:04.645Z,4.30
2022-11-17T08:18:32.741Z,2.88
2022-11-17T08:21:04.388Z,2.72
2022-11-17T08:23:32.388Z,3.22
2022-11-17T08:26:02.270Z,1.48
2022-11-17T08:28:29.936Z,5.35
2022-11-17T08:30:57.914Z,2.38
2022-11-17T08:33:25.617Z,2.45
2022-11-17T08:35:53.310Z,0.77
2022-11-17T08:38:20.943Z,4.45
2022-11-17T08:40:48.688Z,1.10
2022-11-17T08:43:17.734Z,1.40
2022-11-17T08:45:45.473Z,2.72
2022-11-17T08:48:13.165Z,2.60
2022-11-17T08:50:40.909Z,2.53
2022-11-17T08:53:14.057Z,2.95
2022-11-17T08:55:41.898Z,1.30
2022-11-17T08:58:09.943Z,1.20
2022-11-17T09:00:39.331Z,2.00
2022-11-17T09:03:07.587Z,3.35
2022-11-17T09:05:39.734Z,2.13
2022-11-17T09:08:30.228Z,1.98
2022-11-17T09:10:55.211Z,1.90
2022-11-17T09:13:22.940Z,2.35
2022-11-17T09:15:51.978Z,2.45
2022-11-17T09:18:19.815Z,3.45
2022-11-17T09:20:47.475Z,6.82
2022-11-17T09:23:15.112Z,1.98
2022-11-17T09:25:42.797Z,3.83
2022-11-17T09:28:10.500Z,8.13
2022-11-17T09:30:38.239Z,2.95
2022-11-17T09:33:07.243Z,3.90
2022-11-17T09:35:34.908Z,1.92
2022-11-17T09:38:02.779Z,3.13
2022-11-17T09:40:36.324Z,3.05
2022-11-17T09:43:09.333Z,2.10
2022-11-17T09:45:39.718Z,3.25
2022-11-17T09:51:09.014Z,2.33
2022-11-17T09:53:43.458Z,5.07
2022-11-17T09:56:13.693Z,6.03
2022-11-17T09:58:47.035Z,3.63
2022-11-17T10:01:17.117Z,4.30
2022-11-17T10:03:49.836Z,4.32
2022-11-17T10:06:21.110Z,3.25
2022-11-17T10:08:58.252Z,5.85
2022-11-17T10:11:33.111Z,1.77
2022-11-17T10:14:05.795Z,2.85
2022-11-17T10:16:33.482Z,3.25
2022-11-17T10:19:11.149Z,5.10
2022-11-17T10:21:39.137Z,4.32
2022-11-17T10:24:07.507Z,3.80
2022-11-17T10:26:46.364Z,4.95
2022-11-17T10:29:15.829Z,2.67
2022-11-17T10:31:45.862Z,3.58
2022-11-17T10:34:38.789Z,5.70
2022-11-17T10:37:26.834Z,4.65
2022-11-17T10:40:13.716Z,4.47
2022-11-17T10:42:44.198Z,3.08
2022-11-17T10:45:18.448Z,4.43
2022-11-17T10:47:46.645Z,5.80
2022-11-17T10:50:24.276Z,3.53
2022-11-17T10:52:53.686Z,2.17
2022-11-17T10:55:25.600Z,3.38
2022-11-17T10:57:57.642Z,3.55
2022-11-17T11:00:29.300Z,9.15
2022-11-17T11:03:19.512Z,6.80
2022-11-17T11:06:00.623Z,4.05
2022-11-17T11:08:35.900Z,6.75
2022-11-17T11:11:08.604Z,5.03
2022-11-17T11:13:42.687Z,8.07
2022-11-17T11:16:12.485Z,7.68
2022-11-17T11:18:40.574Z,5.68
2022-11-17T11:21:18.428Z,4.00
2022-11-17T11:23:54.452Z,6.00
2022-11-17T11:26:36.693Z,9.70
2022-11-17T11:29:18.978Z,4.72
2022-11-17T11:31:59.213Z,8.13
2022-11-17T11:34:51.603Z,3.35
2022-11-17T11:37:22.545Z,6.57
2022-11-17T11:39:58.968Z,6.65
2022-11-17T11:42:44.995Z,7.78
2022-11-17T11:45:24.228Z,4.85
2022-11-17T11:48:14.601Z,6.28
2022-11-17T11:50:50.241Z,7.32
2022-11-17T11:53:25.574Z,7.30
2022-11-17T11:56:04.352Z,5.93
2022-11-17T11:58:32.157Z,6.18
2022-11-17T12:01:05.495Z,6.28
2022-11-17T12:03:41.315Z,7.60
2022-11-17T12:06:35.255Z,5.18
2022-11-17T12:09:20.869Z,4.20
2022-11-17T12:12:02.896Z,6.93
2022-11-17T12:14:32.777Z,7.15
2022-11-17T12:17:07.432Z,4.50
2022-11-17T12:19:59.769Z,3.70
2022-11-17T12:22:54.392Z,10.93
2022-11-17T12:25:28.784Z,8.18
2022-11-17T12:27:56.515Z,6.57
2022-11-17T12:30:52.598Z,7.45
2022-11-17T12:33:20.820Z,8.25
2022-11-17T12:36:31.210Z,8.77
2022-11-17T12:39:01.182Z,6.07
2022-11-17T12:42:06.433Z,7.15
2022-11-17T12:44:51.167Z,8.48
2022-11-17T12:47:20.765Z,8.07
2022-11-17T12:50:00.941Z,7.72
2022-11-17T12:52:39.152Z,12.82
2022-11-17T12:55:18.865Z,7.10
2022-11-17T12:57:51.468Z,7.22
2022-11-17T13:02:59.272Z,12.98
2022-11-17T13:05:30.361Z,6.20
2022-11-17T13:08:21.407Z,7.45
2022-11-17T13:10:50.080Z,9.00
2022-11-17T13:13:20.549Z,9.52
2022-11-17T13:15:54.294Z,9.18
2022-11-17T13:18:32.025Z,9.25
2022-11-17T13:21:00.352Z,10.05
2022-11-17T13:23:32.912Z,8.65
2022-11-17T13:28:38.353Z,5.45
2022-11-17T13:31:08.020Z,5.63
2022-11-17T13:33:40.156Z,8.85
2022-11-17T13:36:16.495Z,11.65
2022-11-17T13:38:52.737Z,9.00
2022-11-17T13:41:24.528Z,19.73
2022-11-17T13:43:52.808Z,14.23
2022-11-17T13:46:24.882Z,15.70
2022-11-17T13:48:52.886Z,11.85
2022-11-17T13:51:27.795Z,10.85
2022-11-17T13:54:00.312Z,5.72
2022-11-17T13:56:32.811Z,7.95
2022-11-17T13:59:03.354Z,9.40
2022-11-17T14:01:33.178Z,8.18
2022-11-17T14:04:19.802Z,9.45
2022-11-17T14:07:00.374Z,10.63
2022-11-17T14:09:34.448Z,4.47
2022-11-17T14:12:08.993Z,11.85
2022-11-17T14:14:43.688Z,14.07
2022-11-17T14:17:13.737Z,22.92
2022-11-17T14:19:41.437Z,13.68
2022-11-17T14:22:31.028Z,16.55
2022-11-17T14:25:00.656Z,16.95
2022-11-17T14:27:40.824Z,17.17
2022-11-17T14:30:14.303Z,13.93
2022-11-17T14:32:42.032Z,20.88
2022-11-17T14:35:14.213Z,27.90
2022-11-17T14:37:41.940Z,17.05
2022-11-17T14:40:14.415Z,13.13
2022-11-17T14:42:42.395Z,7.22
2022-11-17T14:45:13.856Z,8.50
2022-11-17T14:47:41.811Z,8.20
2022-11-17T14:50:13.815Z,7.90
2022-11-17T14:52:42.427Z,8.13
2022-11-17T14:55:12.342Z,5.80
2022-11-17T14:57:40.179Z,9.98
2022-11-17T15:00:13.506Z,8.48
2022-11-17T15:02:47.420Z,12.77
2022-11-17T15:05:15.719Z,13.25
2022-11-17T15:07:43.370Z,12.13
2022-11-17T15:10:12.826Z,13.93
2022-11-17T15:12:40.539Z,13.00
2022-11-17T15:15:09.204Z,16.13
2022-11-17T15:17:37.020Z,19.40
2022-11-17T15:20:05.583Z,13.30
2022-11-17T15:22:36.424Z,15.90
2022-11-17T15:25:04.081Z,11.60
2022-11-17T15:27:33.197Z,8.25
2022-11-17T15:30:00.865Z,16.17
2022-11-17T15:32:28.663Z,16.38
2022-11-17T15:34:56.396Z,13.98
2022-11-17T15:37:24.153Z,15.20
2022-11-17T15:39:51.956Z,10.25
2022-11-17T15:42:19.635Z,8.25
2022-11-17T15:44:48.692Z,9.38
2022-11-17T15:47:16.329Z,10.55
2022-11-17T15:49:43.960Z,9.48
2022-11-17T15:52:11.586Z,11.85
2022-11-17T15:54:39.247Z,9.35
2022-11-17T15:57:06.954Z,11.93
2022-11-17T15:59:34.607Z,14.48
2022-11-17T16:02:10.526Z,11.38
2022-11-17T16:04:38.277Z,15.15
2022-11-17T16:07:08.749Z,14.88
2022-11-17T16:09:36.473Z,12.70
2022-11-17T16:12:04.454Z,20.25
2022-11-17T16:14:32.699Z,12.18
2022-11-17T16:17:00.324Z,14.13
2022-11-17T16:19:29.371Z,16.77
2022-11-17T16:21:57.069Z,13.90
2022-11-17T16:24:24.739Z,17.77
2022-11-17T16:26:52.423Z,25.05
2022-11-17T16:29:20.128Z,18.77
2022-11-17T16:31:47.829Z,14.00
2022-11-17T16:34:17.893Z,15.75
2022-11-17T16:36:47.173Z,16.20
2022-11-17T16:39:17.663Z,10.38
2022-11-17T16:41:46.408Z,15.60
2022-11-17T16:44:15.781Z,13.45
2022-11-17T16:46:45.409Z,17.00
2022-11-17T16:49:15.168Z,14.00
2022-11-17T16:51:50.123Z,21.50
2022-11-17T16:54:18.789Z,17.65
2022-11-17T16:56:46.666Z,13.07
2022-11-17T16:59:15.286Z,16.38
2022-11-17T17:01:43.503Z,11.88
2022-11-17T17:04:12.123Z,10.02
2022-11-17T17:06:41.291Z,18.00
2022-11-17T17:09:12.326Z,22.98
2022-11-17T17:11:40.994Z,14.45
2022-11-17T17:14:12.590Z,19.15
2022-11-17T17:16:40.858Z,25.73
2022-11-17T17:19:10.026Z,18.75
2022-11-17T17:21:39.589Z,20.98
2022-11-17T17:24:08.022Z,16.08
2022-11-17T17:26:38.066Z,9.10
2022-11-17T17:29:06.566Z,16.50
2022-11-17T17:31:36.219Z,9.48
2022-11-17T17:34:04.778Z,8.70
2022-11-17T17:36:34.519Z,7.50
2022-11-17T17:39:03.125Z,11.90
2022-11-17T17:41:32.831Z,9.35
2022-11-17T17:44:04.057Z,7.32
2022-11-17T17:46:34.858Z,4.57
2022-11-17T17:49:03.209Z,8.95
2022-11-17T17:51:37.753Z,6.10
2022-11-17T17:54:05.733Z,6.43
2022-11-17T17:56:37.422Z,6.47
2022-11-17T17:59:06.536Z,4.22
2022-11-17T18:01:34.319Z,7.18
2022-11-17T18:04:05.577Z,5.45
2022-11-17T18:06:37.306Z,7.25
2022-11-17T18:09:05.409Z,6.25
2022-11-17T18:11:46.799Z,7.13
2022-11-17T18:14:17.280Z,6.38
2022-11-17T18:16:44.907Z,3.85
2022-11-17T18:19:19.260Z,4.72
2022-11-17T18:21:47.294Z,6.55
2022-11-17T18:24:15.011Z,4.82
2022-11-17T18:26:42.834Z,6.88
2022-11-17T18:29:14.779Z,2.50
2022-11-17T18:31:46.610Z,3.70
2022-11-17T18:34:16.650Z,6.30
2022-11-17T18:36:44.330Z,4.65
2022-11-17T18:39:12.203Z,3.40
2022-11-17T18:41:41.321Z,3.65
2022-11-17T18:44:09.179Z,5.50
2022-11-17T18:46:36.979Z,4.43
2022-11-17T18:49:07.507Z,2.40
2022-11-17T18:51:36.103Z,2.97
2022-11-17T18:54:04.262Z,4.63
2022-11-17T18:56:33.532Z,3.05
2022-11-17T18:59:01.850Z,2.03
2022-11-17T19:01:30.707Z,2.95
2022-11-17T19:04:00.788Z,1.20
2022-11-17T19:06:32.958Z,0.98
2022-11-17T19:09:01.061Z,1.65
2022-11-17T19:11:30.714Z,2.22
2022-11-17T19:14:02.156Z,2.15
2022-11-17T19:16:30.206Z,1.88
2022-11-17T19:18:58.072Z,3.35
2022-11-17T19:21:27.421Z,6.90
2022-11-17T19:23:59.369Z,5.38
2022-11-17T19:26:28.989Z,1.30
2022-11-17T19:28:57.847Z,2.45
2022-11-17T19:31:25.978Z,0.75
2022-11-17T19:33:54.377Z,2.35
2022-11-17T19:36:24.131Z,4.25
2022-11-17T19:38:53.345Z,0.63
2022-11-17T19:41:24.097Z,5.65
2022-11-17T19:43:54.158Z,1.05
2022-11-17T19:46:22.503Z,2.40
2022-11-17T19:48:51.596Z,1.15
2022-11-17T19:51:21.019Z,2.60
2022-11-17T19:53:49.935Z,0.88
2022-11-17T19:56:19.837Z,1.63
2022-11-17T19:58:49.772Z,2.20
2022-11-17T20:01:19.055Z,2.38
2022-11-17T20:03:47.436Z,0.65
2022-11-17T20:06:17.206Z,1.13
2022-11-17T20:08:45.336Z,2.80
2022-11-17T20:11:14.785Z,2.35
2022-11-17T20:13:42.493Z,5.43
2022-11-17T20:16:14.451Z,2.15
2022-11-17T20:18:42.759Z,1.00
2022-11-17T20:21:11.531Z,1.33
2022-11-17T20:23:39.644Z,1.30
2022-11-17T20:26:09.106Z,1.92
2022-11-17T20:28:38.187Z,1.50
2022-11-17T20:31:10.103Z,2.17
2022-11-17T20:33:40.397Z,3.03
2022-11-17T20:36:10.229Z,3.45
2022-11-17T20:38:37.877Z,2.47
2022-11-17T20:41:06.555Z,1.95
2022-11-17T20:43:34.928Z,3.15
2022-11-17T20:46:03.526Z,2.35
2022-11-17T20:48:33.943Z,4.72
2022-11-17T20:51:05.136Z,4.50
2022-11-17T20:53:33.374Z,4.60
2022-11-17T20:56:02.785Z,4.50
2022-11-17T20:58:31.239Z,2.65
2022-11-17T21:00:59.560Z,1.08
2022-11-17T21:03:28.204Z,2.40
2022-11-17T21:05:58.755Z,4.45
2022-11-17T21:08:31.080Z,6.28
2022-11-17T21:11:00.036Z,4.63
2022-11-17T21:13:28.491Z,3.28
2022-11-17T21:16:04.636Z,3.88
2022-11-17T21:18:32.698Z,9.32
2022-11-17T21:21:01.543Z,7.30
2022-11-17T21:23:30.567Z,6.20
2022-11-17T21:25:58.221Z,6.50
2022-11-17T21:28:25.896Z,5.65
2022-11-17T21:30:53.583Z,4.18
2022-11-17T21:33:21.279Z,4.93
2022-11-17T21:35:48.901Z,9.20
2022-11-17T21:38:16.768Z,5.55
2022-11-17T21:40:46.053Z,4.97
2022-11-17T21:43:13.671Z,4.57
2022-11-17T21:45:41.436Z,7.60
2022-11-17T21:48:09.186Z,3.53
2022-11-17T21:50:36.921Z,3.80
2022-11-17T21:53:04.539Z,5.90
2022-11-17T21:55:32.346Z,3.17
2022-11-17T21:58:01.456Z,3.83
2022-11-17T22:00:29.663Z,2.17
2022-11-17T22:02:57.405Z,1.77
2022-11-17T22:05:26.212Z,4.03
2022-11-17T22:07:53.874Z,4.20
2022-11-17T22:10:21.652Z,5.32
2022-11-17T22:12:49.286Z,6.00
2022-11-17T22:15:18.711Z,4.45
2022-11-17T22:17:48.751Z,4.75
2022-11-17T22:20:17.083Z,5.43
2022-11-17T22:22:45.549Z,4.68
2022-11-17T22:25:43.080Z,6.90
2022-11-17T22:28:01.009Z,3.00
2022-11-17T22:30:29.973Z,1.98
2022-11-17T22:32:57.627Z,4.03
2022-11-17T22:35:25.283Z,4.47
2022-11-17T22:37:53.104Z,4.88
2022-11-17T22:40:20.775Z,3.88
2022-11-17T22:42:48.472Z,4.28
2022-11-17T22:45:16.410Z,4.75
2022-11-17T22:47:46.247Z,7.75
2022-11-17T22:50:13.981Z,3.38
2022-11-17T22:52:41.639Z,4.55
2022-11-17T22:55:09.882Z,3.15
2022-11-17T22:57:37.566Z,3.47
2022-11-17T23:00:06.753Z,6.65
2022-11-17T23:02:35.250Z,2.65
2022-11-17T23:05:04.505Z,3.15
2022-11-17T23:07:32.213Z,5.57
2022-11-17T23:10:01.542Z,2.70
2022-11-17T23:12:29.224Z,2.13
2022-11-17T23:14:56.873Z,1.42
2022-11-17T23:17:24.714Z,3.60
2022-11-17T23:19:52.458Z,0.80
2022-11-17T23:22:21.499Z,1.17
2022-11-17T23:24:49.534Z,4.03
2022-11-17T23:27:17.341Z,2.28
2022-11-17T23:29:44.942Z,1.88
2022-11-17T23:32:12.579Z,1.40
2022-11-17T23:34:40.316Z,1.75
2022-11-17T23:37:08.067Z,1.27
2022-11-17T23:39:37.178Z,3.60
2022-11-17T23:42:05.426Z,5.15
2022-11-17T23:44:33.225Z,3.50
2022-11-17T23:47:00.904Z,6.40
2022-11-17T23:49:28.547Z,1.13
2022-11-17T23:51:56.231Z,3.28
2022-11-17T23:54:23.863Z,3.80
2022-11-17T23:56:54.563Z,3.03
2022-11-17T23:59:22.273Z,3.13
